createdAt,value
2023-05-17T00:00:29.813Z,14.57
2023-05-17T00:02:29.869Z,14.55
2023-05-17T00:04:29.860Z,14.57
2023-05-17T00:05:57.215Z,14.55
2023-05-17T00:07:57.206Z,14.55
2023-05-17T00:09:57.306Z,14.49
2023-05-17T00:11:57.284Z,14.47
2023-05-17T00:13:57.197Z,14.35
2023-05-17T00:15:57.213Z,14.44
2023-05-17T00:17:57.291Z,14.39
2023-05-17T00:21:23.028Z,14.32
2023-05-17T00:23:23.003Z,14.32
2023-05-17T00:25:23.016Z,14.31
2023-05-17T00:27:23.136Z,14.31
2023-05-17T00:29:22.997Z,14.39
2023-05-17T00:31:23.034Z,14.43
2023-05-17T00:33:22.994Z,14.46
2023-05-17T00:36:15.670Z,14.52
2023-05-17T00:38:15.605Z,14.34
2023-05-17T00:40:15.620Z,14.52
2023-05-17T00:42:15.677Z,14.5
2023-05-17T00:44:15.638Z,14.45
2023-05-17T00:46:15.596Z,14.36
2023-05-17T00:48:15.704Z,14.33
2023-05-17T00:51:37.058Z,14.11
2023-05-17T00:53:37.369Z,14.14
2023-05-17T00:55:37.174Z,14.13
2023-05-17T00:57:36.973Z,14.07
2023-05-17T00:59:37.059Z,14.04
2023-05-17T01:01:37.035Z,14.09
2023-05-17T01:03:37.077Z,14.09
2023-05-17T01:06:53.091Z,13.91
2023-05-17T01:08:52.820Z,13.82
2023-05-17T01:10:53.041Z,13.84
2023-05-17T01:12:52.852Z,13.79
2023-05-17T01:14:52.992Z,13.72
2023-05-17T01:16:52.860Z,13.8
2023-05-17T01:18:52.923Z,13.65
2023-05-17T01:22:02.221Z,13.66
2023-05-17T01:24:02.328Z,13.67
2023-05-17T01:26:02.302Z,13.72
2023-05-17T01:28:02.247Z,13.66
2023-05-17T01:30:02.346Z,13.64
2023-05-17T01:32:02.228Z,13.68
2023-05-17T01:34:02.275Z,13.67
2023-05-17T01:36:57.091Z,13.6
2023-05-17T01:38:57.089Z,13.65
2023-05-17T01:40:57.046Z,13.7
2023-05-17T01:42:57.056Z,13.66
2023-05-17T01:44:57.053Z,13.5
2023-05-17T01:46:57.334Z,13.55
2023-05-17T01:48:57.117Z,13.52
2023-05-17T01:52:09.991Z,13.47
2023-05-17T01:54:09.984Z,13.41
2023-05-17T01:56:10.429Z,13.37
2023-05-17T01:58:09.999Z,13.39
2023-05-17T02:00:10.010Z,13.38
2023-05-17T02:02:10.095Z,13.39
2023-05-17T02:04:10.123Z,13.37
2023-05-17T02:07:53.059Z,13.39
2023-05-17T02:09:53.061Z,13.33
2023-05-17T02:11:53.301Z,13.36
2023-05-17T02:13:53.050Z,13.33
2023-05-17T02:15:53.051Z,13.23
2023-05-17T02:17:53.302Z,13.21
2023-05-17T02:19:53.048Z,13.2
2023-05-17T02:22:18.608Z,13.12
2023-05-17T02:24:18.535Z,13.02
2023-05-17T02:26:18.615Z,13.02
2023-05-17T02:28:18.546Z,13.02
2023-05-17T02:30:18.586Z,12.99
2023-05-17T02:32:18.523Z,13.05
2023-05-17T02:34:18.635Z,13.03
2023-05-17T02:37:33.221Z,13.01
2023-05-17T02:39:33.230Z,13.02
2023-05-17T02:41:33.235Z,13.07
2023-05-17T02:43:33.232Z,13
2023-05-17T02:45:33.211Z,13.02
2023-05-17T02:47:33.245Z,12.98
2023-05-17T02:49:33.320Z,13.02
2023-05-17T02:52:57.499Z,12.98
2023-05-17T02:54:57.492Z,12.96
2023-05-17T02:56:57.592Z,12.85
2023-05-17T02:58:57.506Z,12.8
2023-05-17T03:00:57.513Z,12.76
2023-05-17T03:02:57.554Z,12.78
2023-05-17T03:04:57.952Z,12.85
2023-05-17T03:08:36.050Z,12.83
2023-05-17T03:10:36.142Z,12.86
2023-05-17T03:12:36.040Z,12.7
2023-05-17T03:14:36.085Z,12.75
2023-05-17T03:16:36.036Z,12.67
2023-05-17T03:18:36.129Z,12.79
2023-05-17T03:20:36.221Z,12.8
2023-05-17T03:23:25.562Z,12.9
2023-05-17T03:25:25.514Z,12.91
2023-05-17T03:27:25.594Z,13
2023-05-17T03:29:25.502Z,13.11
2023-05-17T03:31:25.494Z,13.02
2023-05-17T03:33:25.577Z,13.05
2023-05-17T03:35:25.509Z,13.15
2023-05-17T03:38:07.447Z,13.27
2023-05-17T03:40:07.306Z,13.42
2023-05-17T03:42:07.332Z,13.68
2023-05-17T03:44:07.384Z,13.65
2023-05-17T03:46:07.361Z,13.79
2023-05-17T03:48:07.316Z,14.13
2023-05-17T03:50:07.321Z,14.64
2023-05-17T03:52:07.519Z,15.36
2023-05-17T03:53:54.794Z,15.84
2023-05-17T03:55:55.077Z,16.39
2023-05-17T03:57:54.905Z,16.37
2023-05-17T03:59:54.860Z,17
2023-05-17T04:01:55.048Z,17.98
2023-05-17T04:03:55.229Z,18.45
2023-05-17T04:05:55.138Z,18.9
2023-05-17T04:09:11.942Z,18.48
2023-05-17T04:11:11.970Z,17.99
2023-05-17T04:13:12.038Z,17.49
2023-05-17T04:15:11.939Z,17.36
2023-05-17T04:17:11.978Z,17.74
2023-05-17T04:19:12.000Z,18.83
2023-05-17T04:21:11.887Z,20.09
2023-05-17T04:24:02.501Z,20.47
2023-05-17T04:26:02.507Z,21.13
2023-05-17T04:28:02.495Z,21.17
2023-05-17T04:30:02.530Z,21.43
2023-05-17T04:32:02.498Z,21.4
2023-05-17T04:34:02.642Z,21.15
2023-05-17T04:36:02.536Z,21.59
2023-05-17T04:39:08.826Z,22.11
2023-05-17T04:41:09.058Z,22.33
2023-05-17T04:43:08.846Z,22.88
2023-05-17T04:45:08.854Z,23.45
2023-05-17T04:47:08.841Z,23.81
2023-05-17T04:49:08.859Z,24.2
2023-05-17T04:51:08.794Z,24.7
2023-05-17T04:54:18.252Z,23.72
2023-05-17T04:56:18.307Z,23.45
2023-05-17T04:58:18.211Z,23.26
2023-05-17T05:00:18.263Z,23.08
2023-05-17T05:02:18.226Z,22.85
2023-05-17T05:04:18.480Z,23.05
2023-05-17T05:06:18.253Z,22.63
2023-05-17T05:09:40.928Z,23.16
2023-05-17T05:11:41.111Z,23.3
2023-05-17T05:13:40.908Z,21.88
2023-05-17T05:15:40.913Z,22.74
2023-05-17T05:17:41.046Z,21.04
2023-05-17T05:19:41.000Z,19.87
2023-05-17T05:21:40.917Z,20.29
2023-05-17T05:24:51.889Z,18.55
2023-05-17T05:26:52.038Z,19.29
2023-05-17T05:28:51.856Z,19.6
2023-05-17T05:30:52.083Z,20.27
2023-05-17T05:32:51.942Z,20
2023-05-17T05:34:51.880Z,19.29
2023-05-17T05:36:51.864Z,19.94
2023-05-17T05:39:38.297Z,21.19
2023-05-17T05:41:38.392Z,20.55
2023-05-17T05:43:38.516Z,21.19
2023-05-17T05:45:38.306Z,20.99
2023-05-17T05:47:38.282Z,21.33
2023-05-17T05:49:38.679Z,20.14
2023-05-17T05:51:38.224Z,19.97
2023-05-17T05:55:09.475Z,19.43
2023-05-17T05:57:09.435Z,19.7
2023-05-17T05:59:09.563Z,19.4
2023-05-17T06:01:09.466Z,19.62
2023-05-17T06:03:09.428Z,18.98
2023-05-17T06:05:09.438Z,19.38
2023-05-17T06:07:09.499Z,19.12
2023-05-17T06:09:51.404Z,19
2023-05-17T06:11:51.442Z,19.2
2023-05-17T06:13:51.419Z,19.73
2023-05-17T06:15:51.584Z,20.2
2023-05-17T06:17:51.461Z,19.54
2023-05-17T06:19:51.441Z,19.02
2023-05-17T06:21:51.415Z,18.38
2023-05-17T06:23:51.411Z,19.25
2023-05-17T06:25:12.832Z,19.24
2023-05-17T06:27:12.786Z,19.93
2023-05-17T06:29:12.769Z,20.39
2023-05-17T06:31:13.115Z,20.32
2023-05-17T06:33:12.829Z,20.25
2023-05-17T06:35:12.823Z,20.07
2023-05-17T06:37:15.425Z,19.53
2023-05-17T06:40:52.980Z,20.18
2023-05-17T06:42:52.960Z,20.42
2023-05-17T06:44:53.028Z,20.88
2023-05-17T06:46:53.043Z,20.71
2023-05-17T06:48:53.063Z,20.45
2023-05-17T06:50:53.004Z,20.14
2023-05-17T06:52:52.962Z,20.6
2023-05-17T06:55:18.705Z,20.39
2023-05-17T06:57:18.533Z,19.6
2023-05-17T06:59:18.583Z,19.57
2023-05-17T07:01:18.517Z,19.57
2023-05-17T07:03:18.804Z,19.81
2023-05-17T07:07:18.542Z,20.27
2023-05-17T07:09:18.527Z,20.27
2023-05-17T07:11:17.159Z,20.61
2023-05-17T07:13:17.108Z,20.84
2023-05-17T07:15:17.127Z,21.95
2023-05-17T07:17:17.146Z,22.23
2023-05-17T07:19:17.336Z,22.73
2023-05-17T07:21:17.113Z,22.76
2023-05-17T07:23:17.124Z,21.76
2023-05-17T07:26:26.437Z,21.28
2023-05-17T07:28:26.404Z,21.04
2023-05-17T07:30:26.437Z,21.67
2023-05-17T07:32:26.438Z,22.21
2023-05-17T07:34:26.744Z,21.78
2023-05-17T07:36:26.413Z,22.6
2023-05-17T07:38:26.461Z,22.98
2023-05-17T07:40:56.101Z,22.79
2023-05-17T07:42:56.138Z,22.74
2023-05-17T07:44:56.082Z,21.39
2023-05-17T07:46:56.221Z,21.03
2023-05-17T07:48:58.218Z,21.65
2023-05-17T07:50:56.481Z,22.3
2023-05-17T07:52:56.131Z,22.14
2023-05-17T07:56:26.904Z,22.42
2023-05-17T07:58:26.963Z,22.36
2023-05-17T08:00:26.895Z,22.59
2023-05-17T08:02:26.920Z,23.18
2023-05-17T08:04:26.982Z,22.42
2023-05-17T08:06:27.160Z,22.61
2023-05-17T08:08:27.129Z,22.44
2023-05-17T08:11:31.058Z,22.68
2023-05-17T08:13:30.920Z,22.55
2023-05-17T08:15:30.999Z,21.89
2023-05-17T08:17:30.909Z,21.96
2023-05-17T08:19:30.989Z,22.14
2023-05-17T08:21:30.890Z,23.18
2023-05-17T08:23:30.924Z,23.37
2023-05-17T08:26:47.609Z,23.82
2023-05-17T08:28:47.708Z,23.25
2023-05-17T08:30:47.633Z,22.6
2023-05-17T08:32:50.528Z,22.3
2023-05-17T08:34:47.697Z,22.68
2023-05-17T08:36:47.692Z,23.05
2023-05-17T08:38:47.627Z,23.38
2023-05-17T08:41:27.232Z,23.04
2023-05-17T08:43:28.012Z,23.25
2023-05-17T08:45:27.371Z,23.32
2023-05-17T08:47:27.266Z,23.1
2023-05-17T08:49:27.287Z,23.14
2023-05-17T08:51:27.242Z,21.92
2023-05-17T08:53:27.290Z,22.48
2023-05-17T08:55:27.222Z,21.45
2023-05-17T08:56:38.970Z,21.46
2023-05-17T08:58:52.028Z,22.1
2023-05-17T09:00:39.253Z,22.28
2023-05-17T09:02:39.006Z,20.83
2023-05-17T09:04:39.151Z,20.91
2023-05-17T09:06:39.010Z,21.67
2023-05-17T09:08:39.040Z,21.64
2023-05-17T09:10:38.903Z,22.43
2023-05-17T09:12:18.870Z,22.04
2023-05-17T09:14:18.852Z,22.74
2023-05-17T09:16:18.912Z,23.32
2023-05-17T09:18:19.583Z,23.66
2023-05-17T09:20:18.959Z,22.85
2023-05-17T09:22:18.884Z,21.65
2023-05-17T09:24:18.964Z,22.25
2023-05-17T09:27:49.398Z,20.85
2023-05-17T09:29:49.461Z,21.72
2023-05-17T09:31:49.438Z,21.39
2023-05-17T09:33:49.433Z,21.97
2023-05-17T09:35:49.429Z,21.93
2023-05-17T09:37:49.379Z,22.12
2023-05-17T09:39:49.508Z,22.03
2023-05-17T09:42:25.265Z,21.09
2023-05-17T09:44:25.477Z,21.29
2023-05-17T09:46:25.290Z,20.71
2023-05-17T09:48:25.277Z,21.16
2023-05-17T09:50:26.305Z,20.11
2023-05-17T09:52:25.274Z,20.42
2023-05-17T09:54:25.279Z,21.52
2023-05-17T09:57:40.221Z,21.59
2023-05-17T09:59:39.809Z,20.93
2023-05-17T10:01:39.816Z,20.7
2023-05-17T10:03:40.054Z,21.11
2023-05-17T10:05:39.834Z,20.89
2023-05-17T10:07:39.833Z,21.4
2023-05-17T10:09:39.862Z,20.34
2023-05-17T10:12:56.687Z,19.99
2023-05-17T10:14:56.737Z,19.08
2023-05-17T10:16:56.666Z,19.13
2023-05-17T10:18:56.700Z,19.45
2023-05-17T10:20:56.676Z,20.48
2023-05-17T10:22:58.485Z,20.88
2023-05-17T10:24:56.655Z,20.89
2023-05-17T10:27:40.408Z,22.25
2023-05-17T10:29:40.398Z,23
2023-05-17T10:31:40.403Z,21.16
2023-05-17T10:33:40.475Z,21.01
2023-05-17T10:35:41.129Z,20.07
2023-05-17T10:37:40.407Z,21.41
2023-05-17T10:39:40.362Z,21.29
2023-05-17T10:41:40.360Z,19.99
2023-05-17T10:42:52.523Z,20.79
2023-05-17T10:44:52.565Z,21.73
2023-05-17T10:46:52.559Z,20.31
2023-05-17T10:48:52.585Z,21.42
2023-05-17T10:51:00.878Z,22.19
2023-05-17T10:52:52.548Z,21.67
2023-05-17T10:54:53.266Z,22.62
2023-05-17T10:58:48.086Z,22.3
2023-05-17T11:00:48.051Z,22.75
2023-05-17T11:02:48.053Z,20.92
2023-05-17T11:04:48.084Z,20.65
2023-05-17T11:06:48.041Z,21.78
2023-05-17T11:08:48.064Z,21.86
2023-05-17T11:10:48.012Z,21.68
2023-05-17T11:13:20.179Z,21.57
2023-05-17T11:15:20.199Z,21.12
2023-05-17T11:17:20.247Z,21.73
2023-05-17T11:19:20.274Z,22.85
2023-05-17T11:21:20.205Z,23.85
2023-05-17T11:23:20.246Z,24.24
2023-05-17T11:25:20.179Z,23.68
2023-05-17T11:29:11.259Z,22.52
2023-05-17T11:31:11.299Z,22.12
2023-05-17T11:33:20.852Z,22.46
2023-05-17T11:35:11.232Z,23.3
2023-05-17T11:37:11.213Z,23.12
2023-05-17T11:39:11.272Z,22.46
2023-05-17T11:41:16.065Z,23.23
2023-05-17T11:43:35.212Z,24.11
2023-05-17T11:45:35.200Z,24.08
2023-05-17T11:47:35.261Z,24.31
2023-05-17T11:49:36.525Z,23.33
2023-05-17T11:51:35.181Z,22.94
2023-05-17T11:53:35.232Z,23.16
2023-05-17T11:55:35.173Z,23.08
2023-05-17T11:59:02.860Z,22.61
2023-05-17T12:01:02.810Z,22.19
2023-05-17T12:03:02.872Z,22.94
2023-05-17T12:05:02.927Z,23.37
2023-05-17T12:07:02.807Z,23.78
2023-05-17T12:09:02.801Z,23.83
2023-05-17T12:11:02.802Z,23.96
2023-05-17T12:13:43.934Z,24.23
2023-05-17T12:15:43.885Z,24.34
2023-05-17T12:17:43.915Z,24.26
2023-05-17T12:19:44.026Z,24.28
2023-05-17T12:21:43.919Z,24.26
2023-05-17T12:23:43.931Z,23.91
2023-05-17T12:25:43.927Z,23.72
2023-05-17T12:27:43.890Z,23.39
2023-05-17T12:29:13.635Z,22.92
2023-05-17T12:31:13.714Z,23.07
2023-05-17T12:33:13.654Z,23.03
2023-05-17T12:35:13.604Z,22.93
2023-05-17T12:37:13.765Z,22.89
2023-05-17T12:39:13.644Z,22.78
2023-05-17T12:41:13.603Z,22.03
2023-05-17T12:44:14.985Z,22.02
2023-05-17T12:46:07.812Z,22.37
2023-05-17T12:48:07.836Z,22.02
2023-05-17T12:50:07.822Z,21.78
2023-05-17T12:52:07.777Z,21.61
2023-05-17T12:54:07.818Z,21.54
2023-05-17T12:56:07.821Z,21.78
2023-05-17T12:58:07.824Z,21.51
2023-05-17T12:59:16.770Z,21.37
2023-05-17T13:01:16.795Z,21.36
2023-05-17T13:03:16.818Z,20.97
2023-05-17T13:05:16.756Z,21.17
2023-05-17T13:07:16.780Z,21.13
2023-05-17T13:09:16.835Z,21.32
2023-05-17T13:11:16.731Z,21.08
2023-05-17T13:13:16.742Z,21.15
2023-05-17T13:14:32.527Z,20.89
2023-05-17T13:16:32.500Z,21.05
2023-05-17T13:18:32.532Z,21.22
2023-05-17T13:20:32.477Z,21.39
2023-05-17T13:22:32.522Z,21.11
2023-05-17T13:24:32.519Z,21.09
2023-05-17T13:26:32.506Z,20.95
2023-05-17T13:28:32.480Z,21.06
2023-05-17T13:30:27.758Z,20.93
2023-05-17T13:32:27.795Z,20.86
2023-05-17T13:34:27.705Z,21.02
2023-05-17T13:36:27.736Z,20.86
2023-05-17T13:38:27.710Z,20.93
2023-05-17T13:40:27.958Z,21.12
2023-05-17T13:42:27.773Z,21.06
2023-05-17T13:45:23.271Z,21.1
2023-05-17T13:47:23.300Z,21.06
2023-05-17T13:49:23.345Z,20.97
2023-05-17T13:51:23.313Z,20.4
2023-05-17T13:53:23.452Z,20.49
2023-05-17T13:55:23.509Z,20.65
2023-05-17T13:57:23.288Z,20.29
2023-05-17T14:00:07.797Z,20.13
2023-05-17T14:02:07.687Z,20.26
2023-05-17T14:04:07.709Z,20.44
2023-05-17T14:06:07.981Z,20.45
2023-05-17T14:08:07.777Z,20.36
2023-05-17T14:10:07.778Z,20.24
2023-05-17T14:12:07.807Z,20.12
2023-05-17T14:15:20.704Z,19.85
2023-05-17T14:17:20.406Z,19.63
2023-05-17T14:19:20.447Z,19.66
2023-05-17T14:21:20.770Z,19.61
2023-05-17T14:23:20.393Z,19.48
2023-05-17T14:25:20.501Z,19.42
2023-05-17T14:27:20.480Z,19.15
2023-05-17T14:30:31.832Z,18.8
2023-05-17T14:32:31.525Z,18.73
2023-05-17T14:34:31.502Z,18.47
2023-05-17T14:36:31.550Z,18.29
2023-05-17T14:38:31.499Z,18.11
2023-05-17T14:40:31.715Z,17.96
2023-05-17T14:42:31.759Z,17.97
2023-05-17T14:46:16.421Z,17.7
2023-05-17T14:48:16.720Z,17.79
2023-05-17T14:50:16.288Z,17.7
2023-05-17T14:52:16.332Z,17.57
2023-05-17T14:54:16.310Z,17.69
2023-05-17T14:56:16.303Z,17.55
2023-05-17T14:58:16.558Z,17.73
2023-05-17T15:01:07.898Z,17.63
2023-05-17T15:03:07.819Z,17.81
2023-05-17T15:05:07.719Z,17.73
2023-05-17T15:07:08.373Z,17.51
2023-05-17T15:09:07.678Z,17.45
2023-05-17T15:11:07.746Z,17.33
2023-05-17T15:13:07.703Z,17.17
2023-05-17T15:15:44.301Z,17.32
2023-05-17T15:17:44.512Z,17.29
2023-05-17T15:19:44.448Z,17.18
2023-05-17T15:21:44.394Z,17.09
2023-05-17T15:23:44.384Z,16.57
2023-05-17T15:25:44.359Z,16.7
2023-05-17T15:27:44.377Z,16.6
2023-05-17T15:29:44.422Z,16.6
2023-05-17T15:30:57.619Z,16.62
2023-05-17T15:32:57.680Z,16.43
2023-05-17T15:34:58.043Z,16.42
2023-05-17T15:36:57.538Z,16.47
2023-05-17T15:38:57.487Z,16.31
2023-05-17T15:40:57.522Z,16.22
2023-05-17T15:42:57.670Z,16.12
2023-05-17T15:44:57.562Z,16.01
2023-05-17T15:46:45.233Z,16.09
2023-05-17T15:48:45.197Z,16.08
2023-05-17T15:50:45.255Z,16.1
2023-05-17T15:52:45.188Z,16.16
2023-05-17T15:54:45.162Z,16.04
2023-05-17T15:56:45.154Z,15.94
2023-05-17T15:58:45.197Z,15.85
2023-05-17T16:02:04.056Z,15.91
2023-05-17T16:04:04.049Z,15.68
2023-05-17T16:06:03.644Z,15.74
2023-05-17T16:08:03.606Z,15.76
2023-05-17T16:10:03.641Z,15.83
2023-05-17T16:12:03.604Z,15.14
2023-05-17T16:14:03.578Z,14.43
2023-05-17T16:17:15.881Z,14.82
2023-05-17T16:19:15.928Z,13.52
2023-05-17T16:21:15.919Z,13.09
2023-05-17T16:23:15.851Z,13.95
2023-05-17T16:25:15.889Z,14.28
2023-05-17T16:27:16.022Z,14.15
2023-05-17T16:29:15.986Z,14.3
2023-05-17T16:32:07.061Z,14.51
2023-05-17T16:34:07.062Z,14.8
2023-05-17T16:36:07.038Z,15.05
2023-05-17T16:38:07.119Z,15.26
2023-05-17T16:40:07.067Z,15.44
2023-05-17T16:42:07.000Z,15.52
2023-05-17T16:44:07.307Z,15.46
2023-05-17T16:47:40.539Z,15.38
2023-05-17T16:49:40.390Z,15.47
2023-05-17T16:51:40.323Z,15.41
2023-05-17T16:53:40.233Z,15.43
2023-05-17T16:55:40.176Z,15.47
2023-05-17T16:57:40.260Z,15.41
2023-05-17T16:59:40.356Z,15.31
2023-05-17T17:02:10.860Z,15.39
2023-05-17T17:04:10.827Z,15.4
2023-05-17T17:06:10.772Z,15.32
2023-05-17T17:08:10.788Z,15.18
2023-05-17T17:10:10.791Z,15.32
2023-05-17T17:12:23.359Z,15.33
2023-05-17T17:14:10.796Z,15.31
2023-05-17T17:17:42.883Z,15.38
2023-05-17T17:19:42.867Z,15.43
2023-05-17T17:21:42.908Z,15.49
2023-05-17T17:23:42.868Z,15.23
2023-05-17T17:25:43.003Z,15.38
2023-05-17T17:27:43.095Z,15.37
2023-05-17T17:29:42.850Z,15.4
2023-05-17T17:33:01.132Z,15.04
2023-05-17T17:35:00.825Z,15.07
2023-05-17T17:37:00.823Z,15.19
2023-05-17T17:39:00.808Z,15.27
2023-05-17T17:41:00.861Z,15.3
2023-05-17T17:43:00.791Z,15.32
2023-05-17T17:45:00.924Z,15.29
2023-05-17T17:48:05.808Z,15.25
2023-05-17T17:50:05.937Z,15.23
2023-05-17T17:52:05.800Z,15.21
2023-05-17T17:54:05.794Z,15.14
2023-05-17T17:56:05.864Z,15.12
2023-05-17T17:58:05.799Z,15.07
2023-05-17T18:00:05.830Z,15.08
2023-05-17T18:03:22.397Z,15.06
2023-05-17T18:05:22.437Z,15.11
2023-05-17T18:07:22.429Z,15.03
2023-05-17T18:09:23.031Z,15.02
2023-05-17T18:11:22.470Z,14.91
2023-05-17T18:13:22.374Z,15.02
2023-05-17T18:15:22.418Z,14.98
2023-05-17T18:18:36.089Z,14.92
2023-05-17T18:20:36.100Z,14.93
2023-05-17T18:22:36.121Z,14.92
2023-05-17T18:24:36.055Z,14.96
2023-05-17T18:26:36.249Z,14.97
2023-05-17T18:28:42.221Z,14.97
2023-05-17T18:30:36.116Z,14.96
2023-05-17T18:33:29.733Z,14.74
2023-05-17T18:35:29.811Z,14.89
2023-05-17T18:37:29.828Z,14.88
2023-05-17T18:39:29.773Z,14.83
2023-05-17T18:41:29.696Z,14.81
2023-05-17T18:43:29.734Z,14.7
2023-05-17T18:45:29.755Z,14.64
2023-05-17T18:48:24.537Z,14.73
2023-05-17T18:50:24.586Z,14.74
2023-05-17T18:52:24.623Z,14.78
2023-05-17T18:54:24.585Z,14.79
2023-05-17T18:56:24.621Z,14.65
2023-05-17T18:58:24.526Z,14.63
2023-05-17T19:00:24.593Z,14.67
2023-05-17T19:03:18.975Z,14.76
2023-05-17T19:05:18.980Z,14.72
2023-05-17T19:07:19.162Z,14.61
2023-05-17T19:09:18.985Z,14.62
2023-05-17T19:11:19.091Z,14.62
2023-05-17T19:13:18.979Z,14.67
2023-05-17T19:15:18.994Z,14.67
2023-05-17T19:17:19.035Z,14.66
2023-05-17T19:19:11.762Z,14.63
2023-05-17T19:21:11.781Z,14.61
2023-05-17T19:23:11.722Z,14.58
2023-05-17T19:25:11.694Z,14.59
2023-05-17T19:27:11.760Z,14.59
2023-05-17T19:29:11.717Z,14.59
2023-05-17T19:31:11.772Z,14.61
2023-05-17T19:34:22.926Z,14.59
2023-05-17T19:36:22.873Z,14.55
2023-05-17T19:38:22.864Z,14.55
2023-05-17T19:40:22.855Z,14.53
2023-05-17T19:42:22.900Z,14.54
2023-05-17T19:44:23.298Z,14.56
2023-05-17T19:46:22.915Z,14.55
2023-05-17T19:49:40.439Z,14.53
2023-05-17T19:51:40.383Z,14.48
2023-05-17T19:53:51.304Z,14.46
2023-05-17T19:55:40.343Z,14.43
2023-05-17T19:57:40.341Z,14.43
2023-05-17T19:59:40.397Z,14.38
2023-05-17T20:01:40.511Z,14.39
2023-05-17T20:04:50.710Z,14.34
2023-05-17T20:06:50.704Z,14.28
2023-05-17T20:08:50.808Z,14.31
2023-05-17T20:10:50.815Z,14.25
2023-05-17T20:12:50.771Z,14.26
2023-05-17T20:14:50.849Z,14.22
2023-05-17T20:16:50.673Z,14.17
2023-05-17T20:19:43.888Z,14.12
2023-05-17T20:21:43.941Z,14.22
2023-05-17T20:23:43.935Z,14.25
2023-05-17T20:25:43.907Z,14.21
2023-05-17T20:27:43.892Z,14.2
2023-05-17T20:29:43.942Z,14.18
2023-05-17T20:31:43.896Z,14.19
2023-05-17T20:34:26.984Z,14.17
2023-05-17T20:36:27.028Z,14.15
2023-05-17T20:38:27.024Z,14.1
2023-05-17T20:40:27.013Z,14.15
2023-05-17T20:42:26.980Z,14.14
2023-05-17T20:44:27.123Z,14.16
2023-05-17T20:46:27.072Z,14.16
2023-05-17T20:50:20.190Z,14.12
2023-05-17T20:52:22.242Z,14.1
2023-05-17T20:54:18.389Z,14.03
2023-05-17T20:56:18.424Z,14.05
2023-05-17T20:58:18.352Z,14.14
2023-05-17T21:00:18.439Z,14.08
2023-05-17T21:02:18.381Z,14.19
2023-05-17T21:04:56.456Z,14.14
2023-05-17T21:06:56.382Z,14.13
2023-05-17T21:08:55.976Z,14.15
2023-05-17T21:10:56.131Z,14.18
2023-05-17T21:12:56.136Z,14.02
2023-05-17T21:15:08.187Z,13.96
2023-05-17T21:16:56.034Z,14.06
2023-05-17T21:19:46.499Z,14.1
2023-05-17T21:21:46.454Z,13.98
2023-05-17T21:23:46.464Z,13.88
2023-05-17T21:25:46.450Z,13.88
2023-05-17T21:27:46.518Z,13.98
2023-05-17T21:29:46.416Z,13.99
2023-05-17T21:31:46.502Z,13.9
2023-05-17T21:33:46.614Z,13.89
2023-05-17T21:35:35.033Z,13.96
2023-05-17T21:37:35.043Z,13.97
2023-05-17T21:39:35.090Z,13.88
2023-05-17T21:41:35.038Z,13.95
2023-05-17T21:43:35.278Z,13.94
2023-05-17T21:45:35.172Z,13.95
2023-05-17T21:47:35.079Z,14.05
2023-05-17T21:50:28.671Z,14.09
2023-05-17T21:52:28.204Z,14.04
2023-05-17T21:54:28.472Z,14.11
2023-05-17T21:56:28.590Z,14.08
2023-05-17T21:58:28.573Z,14.02
2023-05-17T22:00:28.224Z,14.04
2023-05-17T22:02:28.306Z,14.01
2023-05-17T22:06:02.312Z,14.04
2023-05-17T22:08:02.254Z,14.05
2023-05-17T22:10:02.349Z,14.03
2023-05-17T22:12:02.202Z,14.07
2023-05-17T22:14:02.247Z,14.05
2023-05-17T22:16:02.286Z,14.1
2023-05-17T22:18:02.305Z,14.02
2023-05-17T22:20:25.957Z,14.03
2023-05-17T22:22:25.948Z,14.02
2023-05-17T22:24:25.911Z,14.03
2023-05-17T22:26:25.971Z,14.05
2023-05-17T22:28:26.163Z,14.02
2023-05-17T22:30:25.911Z,14.01
2023-05-17T22:32:25.990Z,14.03
2023-05-17T22:34:25.920Z,14
2023-05-17T22:35:46.868Z,14.01
2023-05-17T22:37:46.859Z,14.04
2023-05-17T22:39:46.876Z,13.99
2023-05-17T22:41:46.850Z,13.97
2023-05-17T22:43:46.862Z,13.89
2023-05-17T22:45:46.860Z,14
2023-05-17T22:47:47.034Z,14.01
2023-05-17T22:51:06.425Z,14.01
2023-05-17T22:53:06.388Z,14.02
2023-05-17T22:55:06.675Z,14.02
2023-05-17T22:57:06.578Z,13.96
2023-05-17T22:59:06.584Z,14
2023-05-17T23:01:06.453Z,14.04
2023-05-17T23:03:06.491Z,14.06
2023-05-17T23:06:09.395Z,14.06
2023-05-17T23:08:09.347Z,14.04
2023-05-17T23:10:09.383Z,14.03
2023-05-17T23:12:09.353Z,14.01
2023-05-17T23:14:09.344Z,13.97
2023-05-17T23:16:09.352Z,13.95
2023-05-17T23:18:09.455Z,13.93
2023-05-17T23:21:11.588Z,13.97
2023-05-17T23:23:11.626Z,13.99
2023-05-17T23:25:11.616Z,13.94
2023-05-17T23:27:11.627Z,13.97
2023-05-17T23:29:11.643Z,13.96
2023-05-17T23:31:11.668Z,13.93
2023-05-17T23:33:11.633Z,13.92
2023-05-17T23:35:11.623Z,13.96
2023-05-17T23:36:20.708Z,13.96
2023-05-17T23:38:20.708Z,13.9
2023-05-17T23:40:20.692Z,13.93
2023-05-17T23:42:20.689Z,13.93
2023-05-17T23:44:20.701Z,13.92
2023-05-17T23:46:20.831Z,13.73
2023-05-17T23:48:20.788Z,13.95
2023-05-17T23:50:20.794Z,14.02
2023-05-17T23:51:45.479Z,13.99
2023-05-17T23:53:45.439Z,13.9
2023-05-17T23:55:45.494Z,13.87
2023-05-17T23:57:45.484Z,13.91
2023-05-17T23:59:45.447Z,13.87
